sensor_id;sensor_type;location;lat;lon;timestamp;P1;durP1;ratioP1;P2;durP2;ratioP2
44722;SDS011;30451;48.638;10.624;2023-02-07T00:00:18;4.47;;;2.40;;
44722;SDS011;30451;48.638;10.624;2023-02-07T00:02:44;5.10;;;2.08;;
44722;SDS011;30451;48.638;10.624;2023-02-07T00:05:10;5.63;;;2.33;;
44722;SDS011;30451;48.638;10.624;2023-02-07T00:07:37;4.50;;;2.00;;
44722;SDS011;30451;48.638;10.624;2023-02-07T00:10:03;4.57;;;2.30;;
44722;SDS011;30451;48.638;10.624;2023-02-07T00:12:30;3.88;;;2.03;;
44722;SDS011;30451;48.638;10.624;2023-02-07T00:14:56;3.72;;;1.85;;
44722;SDS011;30451;48.638;10.624;2023-02-07T00:17:22;5.03;;;2.22;;
44722;SDS011;30451;48.638;10.624;2023-02-07T00:19:48;3.53;;;1.80;;
44722;SDS011;30451;48.638;10.624;2023-02-07T00:22:13;5.05;;;2.20;;
44722;SDS011;30451;48.638;10.624;2023-02-07T00:24:39;3.97;;;2.10;;
44722;SDS011;30451;48.638;10.624;2023-02-07T00:27:04;5.25;;;2.20;;
44722;SDS011;30451;48.638;10.624;2023-02-07T00:29:30;5.07;;;2.47;;
44722;SDS011;30451;48.638;10.624;2023-02-07T00:31:56;4.70;;;2.03;;
44722;SDS011;30451;48.638;10.624;2023-02-07T00:34:22;4.30;;;2.00;;
44722;SDS011;30451;48.638;10.624;2023-02-07T00:36:49;3.88;;;1.95;;
44722;SDS011;30451;48.638;10.624;2023-02-07T00:39:15;5.10;;;2.20;;
44722;SDS011;30451;48.638;10.624;2023-02-07T00:41:41;4.63;;;1.90;;
44722;SDS011;30451;48.638;10.624;2023-02-07T00:44:08;4.53;;;2.08;;
44722;SDS011;30451;48.638;10.624;2023-02-07T00:46:34;5.22;;;2.10;;
44722;SDS011;30451;48.638;10.624;2023-02-07T00:49:00;4.18;;;1.90;;
44722;SDS011;30451;48.638;10.624;2023-02-07T00:51:26;4.28;;;2.10;;
44722;SDS011;30451;48.638;10.624;2023-02-07T00:53:53;3.42;;;1.95;;
44722;SDS011;30451;48.638;10.624;2023-02-07T00:56:20;3.92;;;1.92;;
44722;SDS011;30451;48.638;10.624;2023-02-07T00:58:47;4.13;;;1.75;;
44722;SDS011;30451;48.638;10.624;2023-02-07T01:01:12;4.43;;;1.70;;
44722;SDS011;30451;48.638;10.624;2023-02-07T01:03:38;4.78;;;1.95;;
44722;SDS011;30451;48.638;10.624;2023-02-07T01:06:05;3.35;;;1.67;;
44722;SDS011;30451;48.638;10.624;2023-02-07T01:08:31;3.67;;;2.00;;
44722;SDS011;30451;48.638;10.624;2023-02-07T01:10:58;4.47;;;1.90;;
44722;SDS011;30451;48.638;10.624;2023-02-07T01:13:26;3.42;;;1.70;;
44722;SDS011;30451;48.638;10.624;2023-02-07T01:15:52;3.05;;;1.70;;
44722;SDS011;30451;48.638;10.624;2023-02-07T01:18:17;3.85;;;1.95;;
44722;SDS011;30451;48.638;10.624;2023-02-07T01:20:44;3.50;;;1.73;;
44722;SDS011;30451;48.638;10.624;2023-02-07T01:23:10;3.95;;;2.00;;
44722;SDS011;30451;48.638;10.624;2023-02-07T01:25:37;3.40;;;1.65;;
44722;SDS011;30451;48.638;10.624;2023-02-07T01:28:03;3.20;;;1.90;;
44722;SDS011;30451;48.638;10.624;2023-02-07T01:30:29;3.22;;;1.67;;
44722;SDS011;30451;48.638;10.624;2023-02-07T01:32:55;3.17;;;1.90;;
44722;SDS011;30451;48.638;10.624;2023-02-07T01:35:21;2.83;;;1.65;;
44722;SDS011;30451;48.638;10.624;2023-02-07T01:37:47;3.60;;;1.77;;
44722;SDS011;30451;48.638;10.624;2023-02-07T01:40:13;3.22;;;1.70;;
44722;SDS011;30451;48.638;10.624;2023-02-07T01:42:38;3.47;;;1.70;;
44722;SDS011;30451;48.638;10.624;2023-02-07T01:47:47;2.90;;;1.80;;
44722;SDS011;30451;48.638;10.624;2023-02-07T01:50:12;3.92;;;1.90;;
44722;SDS011;30451;48.638;10.624;2023-02-07T01:52:38;4.07;;;1.70;;
44722;SDS011;30451;48.638;10.624;2023-02-07T01:55:06;3.28;;;1.70;;
44722;SDS011;30451;48.638;10.624;2023-02-07T01:57:45;3.42;;;1.90;;
44722;SDS011;30451;48.638;10.624;2023-02-07T02:00:12;3.53;;;1.80;;
44722;SDS011;30451;48.638;10.624;2023-02-07T02:02:39;3.42;;;1.60;;
44722;SDS011;30451;48.638;10.624;2023-02-07T02:05:04;3.00;;;1.58;;
44722;SDS011;30451;48.638;10.624;2023-02-07T02:07:32;3.65;;;1.67;;
44722;SDS011;30451;48.638;10.624;2023-02-07T02:09:59;4.10;;;1.75;;
44722;SDS011;30451;48.638;10.624;2023-02-07T02:42:24;3.38;;;1.63;;
44722;SDS011;30451;48.638;10.624;2023-02-07T02:45:06;3.25;;;1.80;;
44722;SDS011;30451;48.638;10.624;2023-02-07T02:50:07;3.38;;;1.73;;
44722;SDS011;30451;48.638;10.624;2023-02-07T02:52:36;3.00;;;1.40;;
44722;SDS011;30451;48.638;10.624;2023-02-07T02:55:01;3.72;;;1.60;;
44722;SDS011;30451;48.638;10.624;2023-02-07T03:08:33;2.15;;;1.20;;
44722;SDS011;30451;48.638;10.624;2023-02-07T03:11:10;3.10;;;1.60;;
44722;SDS011;30451;48.638;10.624;2023-02-07T03:16:42;2.78;;;1.60;;
44722;SDS011;30451;48.638;10.624;2023-02-07T03:19:29;3.20;;;1.60;;
44722;SDS011;30451;48.638;10.624;2023-02-07T03:22:03;2.88;;;1.50;;
44722;SDS011;30451;48.638;10.624;2023-02-07T03:24:34;2.40;;;1.35;;
44722;SDS011;30451;48.638;10.624;2023-02-07T03:27:06;2.80;;;1.40;;
44722;SDS011;30451;48.638;10.624;2023-02-07T03:29:35;2.53;;;1.40;;
44722;SDS011;30451;48.638;10.624;2023-02-07T03:32:03;2.47;;;1.40;;
44722;SDS011;30451;48.638;10.624;2023-02-07T03:34:37;2.37;;;1.40;;
44722;SDS011;30451;48.638;10.624;2023-02-07T03:37:17;2.67;;;1.50;;
44722;SDS011;30451;48.638;10.624;2023-02-07T03:39:50;3.00;;;1.48;;
44722;SDS011;30451;48.638;10.624;2023-02-07T03:42:26;2.83;;;1.63;;
44722;SDS011;30451;48.638;10.624;2023-02-07T03:45:15;1.92;;;1.27;;
44722;SDS011;30451;48.638;10.624;2023-02-07T03:47:44;2.05;;;1.13;;
44722;SDS011;30451;48.638;10.624;2023-02-07T03:50:09;2.75;;;1.30;;
44722;SDS011;30451;48.638;10.624;2023-02-07T03:52:35;2.53;;;1.45;;
44722;SDS011;30451;48.638;10.624;2023-02-07T03:55:01;2.30;;;1.20;;
44722;SDS011;30451;48.638;10.624;2023-02-07T03:57:26;2.17;;;1.40;;
44722;SDS011;30451;48.638;10.624;2023-02-07T03:59:52;2.58;;;1.33;;
44722;SDS011;30451;48.638;10.624;2023-02-07T04:02:17;1.85;;;1.20;;
44722;SDS011;30451;48.638;10.624;2023-02-07T04:04:43;1.98;;;1.20;;
44722;SDS011;30451;48.638;10.624;2023-02-07T04:07:09;2.55;;;1.20;;
44722;SDS011;30451;48.638;10.624;2023-02-07T04:09:35;2.38;;;1.13;;
44722;SDS011;30451;48.638;10.624;2023-02-07T04:12:01;2.22;;;1.40;;
44722;SDS011;30451;48.638;10.624;2023-02-07T04:14:28;1.98;;;1.25;;
44722;SDS011;30451;48.638;10.624;2023-02-07T04:16:53;2.22;;;1.13;;
44722;SDS011;30451;48.638;10.624;2023-02-07T04:19:19;2.33;;;1.30;;
44722;SDS011;30451;48.638;10.624;2023-02-07T04:21:45;2.35;;;1.20;;
44722;SDS011;30451;48.638;10.624;2023-02-07T04:24:10;2.55;;;1.30;;
44722;SDS011;30451;48.638;10.624;2023-02-07T04:26:36;2.55;;;1.48;;
44722;SDS011;30451;48.638;10.624;2023-02-07T04:29:02;1.92;;;1.20;;
44722;SDS011;30451;48.638;10.624;2023-02-07T04:31:27;1.63;;;1.10;;
44722;SDS011;30451;48.638;10.624;2023-02-07T04:33:53;2.03;;;1.08;;
44722;SDS011;30451;48.638;10.624;2023-02-07T04:36:20;2.67;;;1.35;;
44722;SDS011;30451;48.638;10.624;2023-02-07T04:38:46;2.53;;;1.23;;
44722;SDS011;30451;48.638;10.624;2023-02-07T04:41:12;2.13;;;1.30;;
44722;SDS011;30451;48.638;10.624;2023-02-07T04:43:38;2.33;;;1.10;;
44722;SDS011;30451;48.638;10.624;2023-02-07T04:46:03;2.65;;;1.35;;
44722;SDS011;30451;48.638;10.624;2023-02-07T04:48:30;1.80;;;1.10;;
44722;SDS011;30451;48.638;10.624;2023-02-07T04:50:56;2.15;;;1.25;;
44722;SDS011;30451;48.638;10.624;2023-02-07T04:53:22;2.08;;;1.20;;
44722;SDS011;30451;48.638;10.624;2023-02-07T04:55:48;2.47;;;1.25;;
44722;SDS011;30451;48.638;10.624;2023-02-07T04:58:16;2.47;;;1.20;;
44722;SDS011;30451;48.638;10.624;2023-02-07T05:00:42;1.60;;;1.08;;
44722;SDS011;30451;48.638;10.624;2023-02-07T05:03:08;1.95;;;1.20;;
44722;SDS011;30451;48.638;10.624;2023-02-07T05:05:36;2.40;;;1.30;;
44722;SDS011;30451;48.638;10.624;2023-02-07T05:08:03;2.13;;;1.40;;
44722;SDS011;30451;48.638;10.624;2023-02-07T05:10:29;1.80;;;1.10;;
44722;SDS011;30451;48.638;10.624;2023-02-07T05:12:55;2.72;;;1.38;;
44722;SDS011;30451;48.638;10.624;2023-02-07T05:15:20;2.10;;;1.20;;
44722;SDS011;30451;48.638;10.624;2023-02-07T05:17:46;2.17;;;1.20;;
44722;SDS011;30451;48.638;10.624;2023-02-07T05:20:12;2.33;;;1.40;;
44722;SDS011;30451;48.638;10.624;2023-02-07T05:22:38;2.03;;;1.17;;
44722;SDS011;30451;48.638;10.624;2023-02-07T05:25:04;2.40;;;1.40;;
44722;SDS011;30451;48.638;10.624;2023-02-07T05:27:29;2.90;;;1.60;;
44722;SDS011;30451;48.638;10.624;2023-02-07T05:29:55;1.85;;;1.10;;
44722;SDS011;30451;48.638;10.624;2023-02-07T05:32:23;2.53;;;1.30;;
44722;SDS011;30451;48.638;10.624;2023-02-07T05:35:07;2.63;;;1.40;;
44722;SDS011;30451;48.638;10.624;2023-02-07T05:37:33;2.42;;;1.30;;
44722;SDS011;30451;48.638;10.624;2023-02-07T05:39:59;2.33;;;1.40;;
44722;SDS011;30451;48.638;10.624;2023-02-07T05:42:24;2.42;;;1.30;;
44722;SDS011;30451;48.638;10.624;2023-02-07T05:44:50;2.15;;;1.20;;
44722;SDS011;30451;48.638;10.624;2023-02-07T05:47:16;2.67;;;1.50;;
44722;SDS011;30451;48.638;10.624;2023-02-07T05:49:41;2.35;;;1.40;;
44722;SDS011;30451;48.638;10.624;2023-02-07T05:52:07;2.33;;;1.30;;
44722;SDS011;30451;48.638;10.624;2023-02-07T05:54:33;2.60;;;1.50;;
44722;SDS011;30451;48.638;10.624;2023-02-07T05:56:59;2.10;;;1.35;;
44722;SDS011;30451;48.638;10.624;2023-02-07T05:59:24;2.55;;;1.50;;
44722;SDS011;30451;48.638;10.624;2023-02-07T06:01:50;1.85;;;1.20;;
44722;SDS011;30451;48.638;10.624;2023-02-07T06:04:16;2.08;;;1.20;;
44722;SDS011;30451;48.638;10.624;2023-02-07T06:06:41;1.92;;;1.30;;
44722;SDS011;30451;48.638;10.624;2023-02-07T06:09:07;1.92;;;1.30;;
44722;SDS011;30451;48.638;10.624;2023-02-07T06:11:33;2.17;;;1.30;;
44722;SDS011;30451;48.638;10.624;2023-02-07T06:13:58;1.88;;;1.05;;
44722;SDS011;30451;48.638;10.624;2023-02-07T06:16:25;2.05;;;1.23;;
44722;SDS011;30451;48.638;10.624;2023-02-07T06:18:50;2.35;;;1.27;;
44722;SDS011;30451;48.638;10.624;2023-02-07T06:21:16;2.42;;;1.30;;
44722;SDS011;30451;48.638;10.624;2023-02-07T06:23:42;2.40;;;1.33;;
44722;SDS011;30451;48.638;10.624;2023-02-07T06:26:07;2.20;;;1.40;;
44722;SDS011;30451;48.638;10.624;2023-02-07T06:28:33;2.28;;;1.40;;
44722;SDS011;30451;48.638;10.624;2023-02-07T06:30:58;2.10;;;1.38;;
44722;SDS011;30451;48.638;10.624;2023-02-07T06:33:24;3.03;;;1.55;;
44722;SDS011;30451;48.638;10.624;2023-02-07T06:35:50;3.25;;;1.40;;
44722;SDS011;30451;48.638;10.624;2023-02-07T06:38:16;3.10;;;1.50;;
44722;SDS011;30451;48.638;10.624;2023-02-07T06:40:42;2.60;;;1.38;;
44722;SDS011;30451;48.638;10.624;2023-02-07T06:43:09;3.17;;;1.30;;
44722;SDS011;30451;48.638;10.624;2023-02-07T06:45:35;1.80;;;1.30;;
44722;SDS011;30451;48.638;10.624;2023-02-07T06:48:01;3.53;;;1.38;;
44722;SDS011;30451;48.638;10.624;2023-02-07T06:50:27;2.63;;;1.40;;
44722;SDS011;30451;48.638;10.624;2023-02-07T06:52:53;2.45;;;1.30;;
44722;SDS011;30451;48.638;10.624;2023-02-07T06:55:18;2.03;;;1.10;;
44722;SDS011;30451;48.638;10.624;2023-02-07T06:57:44;1.67;;;1.00;;
44722;SDS011;30451;48.638;10.624;2023-02-07T07:00:10;1.88;;;0.90;;
44722;SDS011;30451;48.638;10.624;2023-02-07T07:02:36;1.42;;;0.90;;
44722;SDS011;30451;48.638;10.624;2023-02-07T07:05:01;1.88;;;1.10;;
44722;SDS011;30451;48.638;10.624;2023-02-07T07:07:27;1.73;;;1.02;;
44722;SDS011;30451;48.638;10.624;2023-02-07T07:09:53;1.73;;;1.00;;
44722;SDS011;30451;48.638;10.624;2023-02-07T07:12:19;1.33;;;1.00;;
44722;SDS011;30451;48.638;10.624;2023-02-07T07:14:45;1.13;;;0.80;;
44722;SDS011;30451;48.638;10.624;2023-02-07T07:17:11;1.52;;;1.00;;
44722;SDS011;30451;48.638;10.624;2023-02-07T07:19:36;1.80;;;0.95;;
44722;SDS011;30451;48.638;10.624;2023-02-07T07:22:02;1.40;;;1.00;;
44722;SDS011;30451;48.638;10.624;2023-02-07T07:24:28;2.45;;;1.00;;
44722;SDS011;30451;48.638;10.624;2023-02-07T07:26:53;1.27;;;0.70;;
44722;SDS011;30451;48.638;10.624;2023-02-07T07:29:20;1.98;;;1.10;;
44722;SDS011;30451;48.638;10.624;2023-02-07T07:31:46;1.77;;;0.90;;
44722;SDS011;30451;48.638;10.624;2023-02-07T07:34:12;1.85;;;1.00;;
44722;SDS011;30451;48.638;10.624;2023-02-07T07:36:37;1.45;;;0.80;;
44722;SDS011;30451;48.638;10.624;2023-02-07T07:39:03;2.13;;;0.90;;
44722;SDS011;30451;48.638;10.624;2023-02-07T07:41:29;1.38;;;0.85;;
44722;SDS011;30451;48.638;10.624;2023-02-07T07:43:55;1.20;;;0.80;;
44722;SDS011;30451;48.638;10.624;2023-02-07T07:46:20;1.50;;;0.90;;
44722;SDS011;30451;48.638;10.624;2023-02-07T07:48:46;1.73;;;0.93;;
44722;SDS011;30451;48.638;10.624;2023-02-07T07:51:12;1.75;;;0.93;;
44722;SDS011;30451;48.638;10.624;2023-02-07T07:53:37;1.73;;;0.82;;
44722;SDS011;30451;48.638;10.624;2023-02-07T07:56:03;1.02;;;0.70;;
44722;SDS011;30451;48.638;10.624;2023-02-07T07:58:29;2.85;;;0.80;;
44722;SDS011;30451;48.638;10.624;2023-02-07T08:00:55;1.20;;;0.80;;
44722;SDS011;30451;48.638;10.624;2023-02-07T08:03:21;2.00;;;0.90;;
44722;SDS011;30451;48.638;10.624;2023-02-07T08:05:47;1.70;;;0.90;;
44722;SDS011;30451;48.638;10.624;2023-02-07T08:08:13;1.60;;;0.90;;
44722;SDS011;30451;48.638;10.624;2023-02-07T08:10:39;1.15;;;0.80;;
44722;SDS011;30451;48.638;10.624;2023-02-07T08:13:05;1.13;;;0.70;;
44722;SDS011;30451;48.638;10.624;2023-02-07T08:15:31;1.30;;;0.80;;
44722;SDS011;30451;48.638;10.624;2023-02-07T08:17:56;1.15;;;0.80;;
44722;SDS011;30451;48.638;10.624;2023-02-07T08:20:22;2.88;;;0.95;;
44722;SDS011;30451;48.638;10.624;2023-02-07T08:22:48;3.08;;;1.58;;
44722;SDS011;30451;48.638;10.624;2023-02-07T08:25:13;2.38;;;1.40;;
44722;SDS011;30451;48.638;10.624;2023-02-07T08:27:39;4.75;;;1.48;;
44722;SDS011;30451;48.638;10.624;2023-02-07T08:30:06;2.63;;;1.50;;
44722;SDS011;30451;48.638;10.624;2023-02-07T08:32:36;2.03;;;1.40;;
44722;SDS011;30451;48.638;10.624;2023-02-07T08:35:03;2.65;;;1.38;;
44722;SDS011;30451;48.638;10.624;2023-02-07T08:37:29;2.45;;;1.20;;
44722;SDS011;30451;48.638;10.624;2023-02-07T08:39:55;2.00;;;1.30;;
44722;SDS011;30451;48.638;10.624;2023-02-07T08:42:22;2.28;;;1.35;;
44722;SDS011;30451;48.638;10.624;2023-02-07T08:44:48;1.95;;;1.27;;
44722;SDS011;30451;48.638;10.624;2023-02-07T08:47:15;2.88;;;1.25;;
44722;SDS011;30451;48.638;10.624;2023-02-07T08:49:41;3.13;;;1.30;;
44722;SDS011;30451;48.638;10.624;2023-02-07T08:52:07;2.20;;;1.30;;
44722;SDS011;30451;48.638;10.624;2023-02-07T08:54:33;3.08;;;1.30;;
44722;SDS011;30451;48.638;10.624;2023-02-07T08:56:59;1.90;;;1.13;;
44722;SDS011;30451;48.638;10.624;2023-02-07T08:59:24;2.33;;;1.35;;
44722;SDS011;30451;48.638;10.624;2023-02-07T09:01:50;2.90;;;1.40;;
44722;SDS011;30451;48.638;10.624;2023-02-07T09:04:16;2.80;;;1.38;;
44722;SDS011;30451;48.638;10.624;2023-02-07T09:06:42;2.35;;;1.30;;
44722;SDS011;30451;48.638;10.624;2023-02-07T09:09:07;2.17;;;1.30;;
44722;SDS011;30451;48.638;10.624;2023-02-07T09:11:34;2.42;;;1.40;;
44722;SDS011;30451;48.638;10.624;2023-02-07T09:14:00;2.10;;;1.40;;
44722;SDS011;30451;48.638;10.624;2023-02-07T09:16:25;2.60;;;1.40;;
44722;SDS011;30451;48.638;10.624;2023-02-07T09:18:51;3.38;;;1.48;;
44722;SDS011;30451;48.638;10.624;2023-02-07T09:21:17;2.00;;;1.30;;
44722;SDS011;30451;48.638;10.624;2023-02-07T09:23:43;2.60;;;1.27;;
44722;SDS011;30451;48.638;10.624;2023-02-07T09:26:10;3.50;;;1.60;;
44722;SDS011;30451;48.638;10.624;2023-02-07T09:28:41;3.40;;;1.60;;
44722;SDS011;30451;48.638;10.624;2023-02-07T09:31:07;2.05;;;1.30;;
44722;SDS011;30451;48.638;10.624;2023-02-07T09:33:34;2.78;;;1.50;;
44722;SDS011;30451;48.638;10.624;2023-02-07T09:36:00;1.90;;;1.20;;
44722;SDS011;30451;48.638;10.624;2023-02-07T09:38:26;2.08;;;1.42;;
44722;SDS011;30451;48.638;10.624;2023-02-07T09:40:52;2.20;;;1.42;;
44722;SDS011;30451;48.638;10.624;2023-02-07T09:45:51;3.45;;;1.38;;
44722;SDS011;30451;48.638;10.624;2023-02-07T09:48:21;1.85;;;1.17;;
44722;SDS011;30451;48.638;10.624;2023-02-07T09:50:54;2.30;;;1.35;;
44722;SDS011;30451;48.638;10.624;2023-02-07T09:53:25;2.15;;;1.30;;
44722;SDS011;30451;48.638;10.624;2023-02-07T09:56:04;2.15;;;1.27;;
44722;SDS011;30451;48.638;10.624;2023-02-07T10:01:14;2.55;;;1.40;;
44722;SDS011;30451;48.638;10.624;2023-02-07T10:04:14;3.47;;;1.30;;
44722;SDS011;30451;48.638;10.624;2023-02-07T10:06:31;2.47;;;1.40;;
44722;SDS011;30451;48.638;10.624;2023-02-07T10:08:59;1.90;;;1.30;;
44722;SDS011;30451;48.638;10.624;2023-02-07T10:19:51;3.53;;;1.60;;
44722;SDS011;30451;48.638;10.624;2023-02-07T10:30:40;2.53;;;1.55;;
44722;SDS011;30451;48.638;10.624;2023-02-07T10:33:23;2.55;;;1.70;;
44722;SDS011;30451;48.638;10.624;2023-02-07T10:35:52;2.60;;;1.58;;
44722;SDS011;30451;48.638;10.624;2023-02-07T10:38:37;3.50;;;1.45;;
44722;SDS011;30451;48.638;10.624;2023-02-07T10:43:39;3.22;;;1.63;;
44722;SDS011;30451;48.638;10.624;2023-02-07T10:46:08;2.40;;;1.40;;
44722;SDS011;30451;48.638;10.624;2023-02-07T10:48:35;2.60;;;1.60;;
44722;SDS011;30451;48.638;10.624;2023-02-07T10:51:03;2.25;;;1.40;;
44722;SDS011;30451;48.638;10.624;2023-02-07T10:53:59;2.80;;;1.50;;
44722;SDS011;30451;48.638;10.624;2023-02-07T10:56:27;2.15;;;1.48;;
44722;SDS011;30451;48.638;10.624;2023-02-07T10:58:58;2.88;;;1.58;;
44722;SDS011;30451;48.638;10.624;2023-02-07T11:01:24;2.72;;;1.50;;
44722;SDS011;30451;48.638;10.624;2023-02-07T11:03:52;2.85;;;1.52;;
44722;SDS011;30451;48.638;10.624;2023-02-07T11:06:29;2.28;;;1.48;;
44722;SDS011;30451;48.638;10.624;2023-02-07T11:11:49;2.55;;;1.40;;
44722;SDS011;30451;48.638;10.624;2023-02-07T11:14:19;2.72;;;1.50;;
44722;SDS011;30451;48.638;10.624;2023-02-07T11:16:51;3.17;;;1.60;;
44722;SDS011;30451;48.638;10.624;2023-02-07T11:19:19;2.95;;;1.70;;
44722;SDS011;30451;48.638;10.624;2023-02-07T11:21:48;2.58;;;1.60;;
44722;SDS011;30451;48.638;10.624;2023-02-07T11:29:26;2.20;;;1.30;;
44722;SDS011;30451;48.638;10.624;2023-02-07T11:31:53;2.20;;;1.35;;
44722;SDS011;30451;48.638;10.624;2023-02-07T11:34:26;2.35;;;1.65;;
44722;SDS011;30451;48.638;10.624;2023-02-07T11:42:39;2.22;;;1.50;;
44722;SDS011;30451;48.638;10.624;2023-02-07T11:45:11;2.78;;;1.52;;
44722;SDS011;30451;48.638;10.624;2023-02-07T11:47:39;2.67;;;1.63;;
44722;SDS011;30451;48.638;10.624;2023-02-07T11:50:07;2.40;;;1.50;;
44722;SDS011;30451;48.638;10.624;2023-02-07T11:52:48;2.90;;;1.75;;
44722;SDS011;30451;48.638;10.624;2023-02-07T11:55:22;2.78;;;1.63;;
44722;SDS011;30451;48.638;10.624;2023-02-07T11:57:53;2.45;;;1.52;;
44722;SDS011;30451;48.638;10.624;2023-02-07T12:00:23;2.67;;;1.60;;
44722;SDS011;30451;48.638;10.624;2023-02-07T12:03:00;3.40;;;1.65;;
44722;SDS011;30451;48.638;10.624;2023-02-07T12:05:41;2.53;;;1.60;;
44722;SDS011;30451;48.638;10.624;2023-02-07T12:10:40;2.28;;;1.60;;
44722;SDS011;30451;48.638;10.624;2023-02-07T12:13:13;3.28;;;1.52;;
44722;SDS011;30451;48.638;10.624;2023-02-07T12:15:44;2.72;;;1.60;;
44722;SDS011;30451;48.638;10.624;2023-02-07T12:21:06;2.63;;;1.58;;
44722;SDS011;30451;48.638;10.624;2023-02-07T12:23:48;2.47;;;1.60;;
44722;SDS011;30451;48.638;10.624;2023-02-07T12:26:22;2.20;;;1.45;;
44722;SDS011;30451;48.638;10.624;2023-02-07T12:31:24;2.55;;;1.52;;
44722;SDS011;30451;48.638;10.624;2023-02-07T12:34:04;2.40;;;1.73;;
44722;SDS011;30451;48.638;10.624;2023-02-07T12:36:40;2.60;;;1.70;;
44722;SDS011;30451;48.638;10.624;2023-02-07T12:44:57;3.03;;;1.63;;
44722;SDS011;30451;48.638;10.624;2023-02-07T12:47:32;3.40;;;1.50;;
44722;SDS011;30451;48.638;10.624;2023-02-07T13:01:02;3.20;;;1.63;;
44722;SDS011;30451;48.638;10.624;2023-02-07T13:06:37;3.63;;;1.73;;
44722;SDS011;30451;48.638;10.624;2023-02-07T13:22:57;5.30;;;1.88;;
44722;SDS011;30451;48.638;10.624;2023-02-07T13:25:29;4.07;;;1.73;;
44722;SDS011;30451;48.638;10.624;2023-02-07T13:28:02;4.05;;;1.55;;
44722;SDS011;30451;48.638;10.624;2023-02-07T13:30:54;5.45;;;1.90;;
44722;SDS011;30451;48.638;10.624;2023-02-07T13:35:53;3.00;;;1.77;;
44722;SDS011;30451;48.638;10.624;2023-02-07T13:38:39;3.33;;;1.73;;
44722;SDS011;30451;48.638;10.624;2023-02-07T13:51:45;4.28;;;2.00;;
44722;SDS011;30451;48.638;10.624;2023-02-07T13:57:50;3.58;;;1.70;;
44722;SDS011;30451;48.638;10.624;2023-02-07T14:03:18;4.32;;;1.70;;
44722;SDS011;30451;48.638;10.624;2023-02-07T14:06:29;4.45;;;2.22;;
44722;SDS011;30451;48.638;10.624;2023-02-07T14:09:26;2.65;;;1.67;;
44722;SDS011;30451;48.638;10.624;2023-02-07T14:11:55;4.07;;;1.90;;
44722;SDS011;30451;48.638;10.624;2023-02-07T14:14:25;5.20;;;1.70;;
44722;SDS011;30451;48.638;10.624;2023-02-07T14:17:09;3.90;;;1.75;;
44722;SDS011;30451;48.638;10.624;2023-02-07T14:27:42;3.22;;;1.60;;
44722;SDS011;30451;48.638;10.624;2023-02-07T14:33:37;3.35;;;1.73;;
44722;SDS011;30451;48.638;10.624;2023-02-07T14:36:13;3.15;;;1.75;;
44722;SDS011;30451;48.638;10.624;2023-02-07T14:41:31;2.85;;;1.52;;
44722;SDS011;30451;48.638;10.624;2023-02-07T14:44:00;3.92;;;1.63;;
44722;SDS011;30451;48.638;10.624;2023-02-07T14:46:31;2.97;;;1.73;;
44722;SDS011;30451;48.638;10.624;2023-02-07T14:49:05;3.85;;;1.60;;
44722;SDS011;30451;48.638;10.624;2023-02-07T14:54:14;2.83;;;1.60;;
44722;SDS011;30451;48.638;10.624;2023-02-07T14:56:51;3.05;;;1.50;;
44722;SDS011;30451;48.638;10.624;2023-02-07T14:59:27;2.70;;;1.52;;
44722;SDS011;30451;48.638;10.624;2023-02-07T15:04:56;2.85;;;1.58;;
44722;SDS011;30451;48.638;10.624;2023-02-07T15:07:23;3.20;;;1.60;;
44722;SDS011;30451;48.638;10.624;2023-02-07T15:09:49;3.17;;;1.88;;
44722;SDS011;30451;48.638;10.624;2023-02-07T15:12:17;4.50;;;1.70;;
44722;SDS011;30451;48.638;10.624;2023-02-07T15:14:48;2.45;;;1.50;;
44722;SDS011;30451;48.638;10.624;2023-02-07T15:17:18;2.70;;;1.60;;
44722;SDS011;30451;48.638;10.624;2023-02-07T15:19:46;2.90;;;1.60;;
44722;SDS011;30451;48.638;10.624;2023-02-07T15:22:19;3.33;;;1.45;;
44722;SDS011;30451;48.638;10.624;2023-02-07T15:24:54;2.90;;;1.73;;
44722;SDS011;30451;48.638;10.624;2023-02-07T15:27:22;2.72;;;1.67;;
44722;SDS011;30451;48.638;10.624;2023-02-07T15:29:53;2.78;;;1.60;;
44722;SDS011;30451;48.638;10.624;2023-02-07T15:32:25;3.60;;;1.58;;
44722;SDS011;30451;48.638;10.624;2023-02-07T15:34:55;2.65;;;1.48;;
44722;SDS011;30451;48.638;10.624;2023-02-07T15:37:21;2.97;;;1.65;;
44722;SDS011;30451;48.638;10.624;2023-02-07T15:39:52;3.00;;;1.40;;
44722;SDS011;30451;48.638;10.624;2023-02-07T15:42:20;5.00;;;1.70;;
44722;SDS011;30451;48.638;10.624;2023-02-07T15:44:50;3.38;;;1.60;;
44722;SDS011;30451;48.638;10.624;2023-02-07T15:50:05;2.70;;;1.50;;
44722;SDS011;30451;48.638;10.624;2023-02-07T15:52:47;3.42;;;1.75;;
44722;SDS011;30451;48.638;10.624;2023-02-07T15:58:27;2.63;;;1.45;;
44722;SDS011;30451;48.638;10.624;2023-02-07T16:01:01;2.20;;;1.58;;
44722;SDS011;30451;48.638;10.624;2023-02-07T16:03:40;3.33;;;1.60;;
44722;SDS011;30451;48.638;10.624;2023-02-07T16:06:12;2.88;;;1.50;;
44722;SDS011;30451;48.638;10.624;2023-02-07T16:08:48;1.90;;;1.33;;
44722;SDS011;30451;48.638;10.624;2023-02-07T16:16:53;2.80;;;1.63;;
44722;SDS011;30451;48.638;10.624;2023-02-07T16:19:24;3.10;;;1.70;;
44722;SDS011;30451;48.638;10.624;2023-02-07T16:21:56;3.58;;;1.92;;
44722;SDS011;30451;48.638;10.624;2023-02-07T16:24:30;2.47;;;1.52;;
44722;SDS011;30451;48.638;10.624;2023-02-07T16:26:59;2.60;;;1.38;;
44722;SDS011;30451;48.638;10.624;2023-02-07T16:29:24;3.22;;;1.60;;
44722;SDS011;30451;48.638;10.624;2023-02-07T16:31:51;2.72;;;1.52;;
44722;SDS011;30451;48.638;10.624;2023-02-07T16:34:18;2.55;;;1.40;;
44722;SDS011;30451;48.638;10.624;2023-02-07T16:36:48;2.33;;;1.50;;
44722;SDS011;30451;48.638;10.624;2023-02-07T16:39:16;3.35;;;1.50;;
44722;SDS011;30451;48.638;10.624;2023-02-07T16:41:46;2.28;;;1.50;;
44722;SDS011;30451;48.638;10.624;2023-02-07T16:44:19;2.63;;;1.60;;
44722;SDS011;30451;48.638;10.624;2023-02-07T16:46:47;2.95;;;1.55;;
44722;SDS011;30451;48.638;10.624;2023-02-07T16:49:18;2.33;;;1.48;;
44722;SDS011;30451;48.638;10.624;2023-02-07T16:51:45;2.80;;;1.83;;
44722;SDS011;30451;48.638;10.624;2023-02-07T16:54:12;3.17;;;1.40;;
44722;SDS011;30451;48.638;10.624;2023-02-07T16:56:38;3.20;;;1.55;;
44722;SDS011;30451;48.638;10.624;2023-02-07T16:59:08;2.33;;;1.48;;
44722;SDS011;30451;48.638;10.624;2023-02-07T17:01:47;3.42;;;1.90;;
44722;SDS011;30451;48.638;10.624;2023-02-07T17:04:15;3.25;;;1.80;;
44722;SDS011;30451;48.638;10.624;2023-02-07T17:06:41;2.53;;;1.77;;
44722;SDS011;30451;48.638;10.624;2023-02-07T17:09:13;2.90;;;1.60;;
44722;SDS011;30451;48.638;10.624;2023-02-07T17:11:39;3.05;;;1.58;;
44722;SDS011;30451;48.638;10.624;2023-02-07T17:14:04;3.67;;;1.63;;
44722;SDS011;30451;48.638;10.624;2023-02-07T17:16:30;3.40;;;1.60;;
44722;SDS011;30451;48.638;10.624;2023-02-07T17:18:56;2.58;;;1.60;;
44722;SDS011;30451;48.638;10.624;2023-02-07T17:21:22;2.72;;;1.60;;
44722;SDS011;30451;48.638;10.624;2023-02-07T17:23:48;3.33;;;1.55;;
44722;SDS011;30451;48.638;10.624;2023-02-07T17:26:17;2.40;;;1.63;;
44722;SDS011;30451;48.638;10.624;2023-02-07T17:28:49;2.47;;;1.70;;
44722;SDS011;30451;48.638;10.624;2023-02-07T17:31:15;2.65;;;1.70;;
44722;SDS011;30451;48.638;10.624;2023-02-07T17:33:41;3.90;;;1.70;;
44722;SDS011;30451;48.638;10.624;2023-02-07T17:36:09;4.15;;;1.70;;
44722;SDS011;30451;48.638;10.624;2023-02-07T17:38:36;3.22;;;1.63;;
44722;SDS011;30451;48.638;10.624;2023-02-07T17:41:02;3.13;;;1.90;;